EST,Max TemperatureF,Mean TemperatureF,Min TemperatureF,Max Dew PointF,MeanDew PointF,Min DewpointF,Max Humidity, Mean Humidity, Min Humidity, Max Sea Level PressureIn, Mean Sea Level PressureIn, Min Sea Level PressureIn, Max VisibilityMiles, Mean VisibilityMiles, Min VisibilityMiles, Max Wind SpeedMPH, Mean Wind SpeedMPH, Max Gust SpeedMPH,PrecipitationIn, CloudCover, Events, WindDirDegrees
2011-11-1,60,44,28,43,33,28,100,82,36,30.33,30.26,30.23,10,6,1,10,2,,0.00,0,,174
2011-11-2,66,50,33,39,35,31,92,68,30,30.33,30.24,30.12,10,10,10,12,2,21,0.00,0,,186
2011-11-3,63,51,39,44,39,34,89,65,41,30.12,30.00,29.88,10,10,10,10,2,,0.00,3,,138
2011-11-4,57,47,33,45,35,28,85,61,32,30.30,30.14,29.95,10,9,5,21,14,28,0.00,2,,26
2011-11-5,57,40,26,30,27,23,92,69,33,30.38,30.31,30.27,10,10,10,13,2,,0.00,0,,110
2011-11-6,62,45,28,32,28,22,92,55,30,30.39,30.31,30.27,10,10,10,14,6,20,0.00,0,,172
2011-11-7,66,50,33,48,41,31,93,73,52,30.36,30.30,30.25,10,10,10,12,3,,0.00,0,,194
2011-11-8,69,54,39,48,44,38,96,74,45,30.25,30.17,30.09,10,10,10,13,4,17,0.00,0,,185
2011-11-9,64,54,43,53,44,33,93,71,58,30.06,29.94,29.81,10,10,5,22,8,33,0.03,5,Rain,188
2011-11-10,48,40,30,34,30,22,86,68,42,30.07,30.02,29.95,10,10,10,17,9,24,0.00,4,Snow,263
2011-11-11,43,36,30,28,26,23,89,69,47,30.10,30.04,29.98,10,10,6,13,9,22,0.00,3,,233
2011-11-12,62,50,39,33,30,23,58,45,31,30.06,30.00,29.95,10,10,10,17,10,26,0.00,0,,197
2011-11-13,66,58,51,49,39,29,58,48,41,29.95,29.84,29.73,10,10,10,22,12,33,0.00,5,,198
2011-11-14,73,65,57,57,56,50,100,74,56,29.80,29.74,29.64,10,8,1,30,17,51,0.85,7,Rain-Thunderstorm,225
2011-11-15,57,54,51,56,52,49,94,91,86,29.93,29.88,29.78,10,10,6,13,7,,0.35,8,Rain,198
2011-11-16,55,46,37,54,49,28,100,90,68,30.07,29.89,29.83,10,7,2,13,4,,0.38,7,Rain,300
2011-11-17,42,34,26,29,21,13,82,60,33,30.35,30.19,30.08,10,10,10,21,8,32,0.00,3,,288
2011-11-18,46,34,21,23,18,15,85,55,30,30.45,30.34,30.19,10,10,10,13,4,20,0.00,0,,172
2011-11-19,59,49,39,45,31,19,60,50,38,30.24,30.15,30.04,10,10,10,16,9,23,0.00,3,,181
2011-11-20,62,55,48,56,52,45,100,88,58,30.22,30.16,30.06,10,6,1,20,10,30,0.33,8,Rain,244
2011-11-21,46,44,42,45,43,39,93,90,81,30.30,30.24,30.19,10,6,2,10,7,,0.08,8,Rain,57
2011-11-22,61,52,44,57,48,43,100,92,82,30.18,29.96,29.67,10,5,1,20,7,30,0.85,8,Rain-Thunderstorm,116
2011-11-23,51,42,30,48,38,30,100,84,69,30.29,30.04,29.73,10,10,6,17,12,30,0.00,5,,307
2011-11-24,44,37,30,39,35,29,100,95,81,30.40,30.32,30.27,8,3,0,10,5,,0.00,5,Fog,233
2011-11-25,60,44,28,40,33,27,100,77,46,30.29,30.23,30.14,10,7,1,15,2,21,0.00,0,,186
2011-11-26,63,50,36,44,39,32,86,60,50,30.20,30.12,29.99,10,10,10,12,6,,0.00,1,,176
2011-11-27,57,52,48,55,50,42,100,87,56,29.97,29.91,29.85,10,7,2,18,10,31,0.84,8,Rain,215
2011-11-28,55,50,46,54,48,44,100,94,87,30.00,29.92,29.73,10,6,2,14,7,,0.74,8,Rain,29
2011-11-29,57,46,35,55,42,32,100,89,73,29.71,29.66,29.60,10,8,2,18,12,29,0.28,8,Rain,223
2011-11-30,39,34,27,34,29,25,93,79,62,30.24,29.96,29.66,10,10,6,16,10,25,0.01,5,,279